Alexander, Arkansas
Current Conditions -  °F | °C
As of 11:53 AM on Friday 19 Dec 2014 (Local Time) from KLIT Reporting Station
Light Rain Light Rain  
Wind Chill: 39°   Ceiling: 2500
Heat Index: 44°   Visibility: 7mi
Dew Point: 37°   Wind: 9mph
Humidity: 76%   Direction: 70°ENE
Pressure: 30.26"   Gusts: NA
Location:  34.63°N, 92.44°W
Report Text: KLIT 191753Z 07008KT 7SM -RA SCT013 BKN025 OVC050 07/03 A3026 RMK AO2 RAB50 SLP249 P0000 60000 T00670028 10067 20056 58005
Loading
Personal Weather Stations






























Interactive Weather Map New forecast layout! Learn more

10-Day Weather Forecast

Advertisements
Track Severe Weather on mobile